sensor_id;sensor_type;location;lat;lon;timestamp;P1;durP1;ratioP1;P2;durP2;ratioP2
43905;SDS011;29564;46.622;13.818;2024-03-23T00:52:37;3.97;;;2.30;;
43905;SDS011;29564;46.622;13.818;2024-03-23T00:53:39;9.32;;;2.20;;
43905;SDS011;29564;46.622;13.818;2024-03-23T00:55:01;6.60;;;1.90;;
43905;SDS011;29564;46.622;13.818;2024-03-23T00:56:07;4.97;;;1.90;;
43905;SDS011;29564;46.622;13.818;2024-03-23T00:57:21;3.33;;;1.83;;
43905;SDS011;29564;46.622;13.818;2024-03-23T00:58:35;3.22;;;1.85;;
43905;SDS011;29564;46.622;13.818;2024-03-23T01:00:27;3.03;;;1.73;;
43905;SDS011;29564;46.622;13.818;2024-03-23T01:02:00;2.33;;;1.35;;
43905;SDS011;29564;46.622;13.818;2024-03-23T01:03:11;2.42;;;1.50;;
43905;SDS011;29564;46.622;13.818;2024-03-23T01:04:18;4.80;;;1.75;;
43905;SDS011;29564;46.622;13.818;2024-03-23T01:05:23;4.22;;;1.80;;
43905;SDS011;29564;46.622;13.818;2024-03-23T01:06:25;3.50;;;2.05;;
43905;SDS011;29564;46.622;13.818;2024-03-23T01:07:30;3.00;;;1.65;;
43905;SDS011;29564;46.622;13.818;2024-03-23T01:08:32;3.00;;;1.73;;
43905;SDS011;29564;46.622;13.818;2024-03-23T01:10:42;2.85;;;1.55;;
43905;SDS011;29564;46.622;13.818;2024-03-23T01:11:47;2.80;;;1.48;;
43905;SDS011;29564;46.622;13.818;2024-03-23T01:12:49;5.15;;;1.75;;
43905;SDS011;29564;46.622;13.818;2024-03-23T01:13:51;2.72;;;1.90;;
43905;SDS011;29564;46.622;13.818;2024-03-23T01:14:55;3.67;;;1.75;;
43905;SDS011;29564;46.622;13.818;2024-03-23T01:15:57;3.85;;;1.92;;
43905;SDS011;29564;46.622;13.818;2024-03-23T01:17:02;4.68;;;2.35;;
43905;SDS011;29564;46.622;13.818;2024-03-23T01:18:04;2.58;;;1.52;;
43905;SDS011;29564;46.622;13.818;2024-03-23T01:20:10;2.50;;;1.42;;
43905;SDS011;29564;46.622;13.818;2024-03-23T01:21:18;3.35;;;1.80;;
43905;SDS011;29564;46.622;13.818;2024-03-23T01:22:20;3.85;;;2.10;;
43905;SDS011;29564;46.622;13.818;2024-03-23T01:23:21;5.80;;;1.77;;
43905;SDS011;29564;46.622;13.818;2024-03-23T01:24:26;4.55;;;1.85;;
43905;SDS011;29564;46.622;13.818;2024-03-23T01:25:31;3.75;;;1.52;;
43905;SDS011;29564;46.622;13.818;2024-03-23T01:26:33;4.28;;;1.98;;
43905;SDS011;29564;46.622;13.818;2024-03-23T01:27:35;3.75;;;2.50;;
43905;SDS011;29564;46.622;13.818;2024-03-23T01:28:45;5.20;;;2.00;;
43905;SDS011;29564;46.622;13.818;2024-03-23T01:29:50;3.42;;;1.75;;
43905;SDS011;29564;46.622;13.818;2024-03-23T01:30:56;7.65;;;2.13;;
43905;SDS011;29564;46.622;13.818;2024-03-23T01:31:57;3.42;;;1.90;;
43905;SDS011;29564;46.622;13.818;2024-03-23T01:32:59;2.33;;;1.83;;
43905;SDS011;29564;46.622;13.818;2024-03-23T01:34:04;7.10;;;1.92;;
43905;SDS011;29564;46.622;13.818;2024-03-23T01:35:09;3.65;;;2.30;;
43905;SDS011;29564;46.622;13.818;2024-03-23T01:36:16;3.88;;;2.05;;
43905;SDS011;29564;46.622;13.818;2024-03-23T01:37:19;4.22;;;2.05;;
43905;SDS011;29564;46.622;13.818;2024-03-23T01:38:20;5.15;;;2.15;;
43905;SDS011;29564;46.622;13.818;2024-03-23T01:39:22;4.60;;;2.13;;
43905;SDS011;29564;46.622;13.818;2024-03-23T01:40:24;4.57;;;2.13;;
43905;SDS011;29564;46.622;13.818;2024-03-23T01:41:28;3.15;;;1.70;;
43905;SDS011;29564;46.622;13.818;2024-03-23T01:42:32;4.35;;;1.60;;
43905;SDS011;29564;46.622;13.818;2024-03-23T01:43:34;3.42;;;1.65;;
43905;SDS011;29564;46.622;13.818;2024-03-23T01:44:39;3.67;;;2.20;;
43905;SDS011;29564;46.622;13.818;2024-03-23T01:45:41;2.83;;;1.60;;
43905;SDS011;29564;46.622;13.818;2024-03-23T01:46:43;3.90;;;1.83;;
43905;SDS011;29564;46.622;13.818;2024-03-23T01:47:51;2.47;;;1.65;;
43905;SDS011;29564;46.622;13.818;2024-03-23T01:48:56;3.45;;;1.63;;
43905;SDS011;29564;46.622;13.818;2024-03-23T01:49:58;2.78;;;1.77;;
43905;SDS011;29564;46.622;13.818;2024-03-23T01:51:00;3.83;;;2.33;;
43905;SDS011;29564;46.622;13.818;2024-03-23T01:52:02;4.97;;;2.00;;
43905;SDS011;29564;46.622;13.818;2024-03-23T01:53:04;4.22;;;2.15;;
43905;SDS011;29564;46.622;13.818;2024-03-23T01:55:09;3.00;;;1.73;;
43905;SDS011;29564;46.622;13.818;2024-03-23T01:56:11;8.60;;;2.15;;
43905;SDS011;29564;46.622;13.818;2024-03-23T02:57:34;3.47;;;2.17;;
43905;SDS011;29564;46.622;13.818;2024-03-23T02:58:36;2.83;;;1.35;;
43905;SDS011;29564;46.622;13.818;2024-03-23T02:59:38;4.50;;;2.00;;
43905;SDS011;29564;46.622;13.818;2024-03-23T03:00:42;3.47;;;1.65;;
43905;SDS011;29564;46.622;13.818;2024-03-23T03:01:44;3.97;;;2.08;;
43905;SDS011;29564;46.622;13.818;2024-03-23T03:02:46;3.50;;;1.40;;
43905;SDS011;29564;46.622;13.818;2024-03-23T03:03:48;3.50;;;1.77;;
43905;SDS011;29564;46.622;13.818;2024-03-23T03:04:50;1.98;;;1.42;;
43905;SDS011;29564;46.622;13.818;2024-03-23T03:05:55;4.13;;;1.95;;
43905;SDS011;29564;46.622;13.818;2024-03-23T03:06:57;2.95;;;1.70;;
43905;SDS011;29564;46.622;13.818;2024-03-23T03:07:59;4.47;;;2.38;;
43905;SDS011;29564;46.622;13.818;2024-03-23T03:09:04;4.10;;;1.83;;
43905;SDS011;29564;46.622;13.818;2024-03-23T03:10:09;4.05;;;2.30;;
43905;SDS011;29564;46.622;13.818;2024-03-23T03:11:11;2.95;;;1.52;;
43905;SDS011;29564;46.622;13.818;2024-03-23T03:12:13;4.45;;;1.98;;
43905;SDS011;29564;46.622;13.818;2024-03-23T03:13:15;4.50;;;2.13;;
43905;SDS011;29564;46.622;13.818;2024-03-23T03:14:20;2.67;;;1.48;;
43905;SDS011;29564;46.622;13.818;2024-03-23T03:15:27;3.03;;;1.60;;
43905;SDS011;29564;46.622;13.818;2024-03-23T03:16:29;4.50;;;2.22;;
43905;SDS011;29564;46.622;13.818;2024-03-23T03:17:31;2.13;;;1.65;;
43905;SDS011;29564;46.622;13.818;2024-03-23T03:18:33;3.50;;;1.52;;
43905;SDS011;29564;46.622;13.818;2024-03-23T03:19:36;3.15;;;1.83;;
43905;SDS011;29564;46.622;13.818;2024-03-23T03:20:40;3.03;;;1.75;;
43905;SDS011;29564;46.622;13.818;2024-03-23T03:21:42;3.10;;;1.48;;
43905;SDS011;29564;46.622;13.818;2024-03-23T03:22:44;5.38;;;1.70;;
43905;SDS011;29564;46.622;13.818;2024-03-23T03:23:46;2.97;;;1.75;;
43905;SDS011;29564;46.622;13.818;2024-03-23T03:24:56;2.15;;;1.50;;
43905;SDS011;29564;46.622;13.818;2024-03-23T03:25:58;4.75;;;1.85;;
43905;SDS011;29564;46.622;13.818;2024-03-23T03:27:00;2.28;;;1.45;;
43905;SDS011;29564;46.622;13.818;2024-03-23T03:28:04;3.13;;;1.83;;
43905;SDS011;29564;46.622;13.818;2024-03-23T03:29:06;6.88;;;1.70;;
43905;SDS011;29564;46.622;13.818;2024-03-23T03:30:11;2.63;;;1.65;;
43905;SDS011;29564;46.622;13.818;2024-03-23T03:31:13;3.47;;;2.15;;
43905;SDS011;29564;46.622;13.818;2024-03-23T03:32:15;2.88;;;1.58;;
43905;SDS011;29564;46.622;13.818;2024-03-23T03:33:17;1.83;;;1.65;;
43905;SDS011;29564;46.622;13.818;2024-03-23T03:34:19;4.18;;;1.83;;
43905;SDS011;29564;46.622;13.818;2024-03-23T03:35:24;3.88;;;1.67;;
43905;SDS011;29564;46.622;13.818;2024-03-23T03:36:26;3.88;;;2.08;;
43905;SDS011;29564;46.622;13.818;2024-03-23T03:37:28;2.78;;;1.60;;
43905;SDS011;29564;46.622;13.818;2024-03-23T03:38:29;3.55;;;2.10;;
43905;SDS011;29564;46.622;13.818;2024-03-23T03:39:34;3.72;;;2.33;;
43905;SDS011;29564;46.622;13.818;2024-03-23T03:40:39;2.97;;;1.65;;
43905;SDS011;29564;46.622;13.818;2024-03-23T03:41:46;3.35;;;2.05;;
43905;SDS011;29564;46.622;13.818;2024-03-23T03:42:48;4.03;;;1.95;;
43905;SDS011;29564;46.622;13.818;2024-03-23T03:43:50;3.03;;;1.77;;
43905;SDS011;29564;46.622;13.818;2024-03-23T03:44:52;4.50;;;2.22;;
43905;SDS011;29564;46.622;13.818;2024-03-23T03:45:55;5.93;;;2.10;;
43905;SDS011;29564;46.622;13.818;2024-03-23T03:47:07;3.42;;;2.22;;
43905;SDS011;29564;46.622;13.818;2024-03-23T03:48:11;2.85;;;1.77;;
43905;SDS011;29564;46.622;13.818;2024-03-23T03:49:13;4.18;;;2.13;;
43905;SDS011;29564;46.622;13.818;2024-03-23T03:50:16;3.67;;;1.98;;
43905;SDS011;29564;46.622;13.818;2024-03-23T03:51:21;4.07;;;1.95;;
43905;SDS011;29564;46.622;13.818;2024-03-23T03:52:23;2.38;;;1.65;;
43905;SDS011;29564;46.622;13.818;2024-03-23T03:53:28;3.88;;;1.70;;
43905;SDS011;29564;46.622;13.818;2024-03-23T03:54:32;3.90;;;1.50;;
43905;SDS011;29564;46.622;13.818;2024-03-23T03:55:35;4.18;;;2.15;;
43905;SDS011;29564;46.622;13.818;2024-03-23T03:56:37;6.47;;;1.83;;
43905;SDS011;29564;46.622;13.818;2024-03-23T03:57:41;3.40;;;1.33;;
43905;SDS011;29564;46.622;13.818;2024-03-23T03:58:43;2.58;;;1.73;;
43905;SDS011;29564;46.622;13.818;2024-03-23T03:59:48;2.63;;;1.60;;
43905;SDS011;29564;46.622;13.818;2024-03-23T04:00:50;2.67;;;1.60;;
43905;SDS011;29564;46.622;13.818;2024-03-23T04:01:54;2.20;;;1.13;;
43905;SDS011;29564;46.622;13.818;2024-03-23T04:02:59;7.68;;;1.80;;
43905;SDS011;29564;46.622;13.818;2024-03-23T04:04:01;2.92;;;2.08;;
43905;SDS011;29564;46.622;13.818;2024-03-23T04:05:03;4.03;;;2.05;;
43905;SDS011;29564;46.622;13.818;2024-03-23T04:06:04;2.78;;;1.85;;
43905;SDS011;29564;46.622;13.818;2024-03-23T04:07:06;3.22;;;1.80;;
43905;SDS011;29564;46.622;13.818;2024-03-23T04:08:08;3.67;;;1.80;;
43905;SDS011;29564;46.622;13.818;2024-03-23T04:09:10;3.33;;;1.98;;
43905;SDS011;29564;46.622;13.818;2024-03-23T04:10:12;3.72;;;1.92;;
43905;SDS011;29564;46.622;13.818;2024-03-23T04:11:13;2.88;;;1.58;;
43905;SDS011;29564;46.622;13.818;2024-03-23T04:12:15;4.07;;;1.80;;
43905;SDS011;29564;46.622;13.818;2024-03-23T04:13:20;2.35;;;1.73;;
43905;SDS011;29564;46.622;13.818;2024-03-23T04:14:24;3.13;;;1.80;;
43905;SDS011;29564;46.622;13.818;2024-03-23T04:15:26;2.30;;;1.45;;
43905;SDS011;29564;46.622;13.818;2024-03-23T04:16:36;3.25;;;1.83;;
43905;SDS011;29564;46.622;13.818;2024-03-23T04:17:41;2.83;;;1.90;;
43905;SDS011;29564;46.622;13.818;2024-03-23T04:18:46;4.78;;;2.10;;
43905;SDS011;29564;46.622;13.818;2024-03-23T04:19:48;3.63;;;2.20;;
43905;SDS011;29564;46.622;13.818;2024-03-23T04:20:53;3.15;;;1.70;;
43905;SDS011;29564;46.622;13.818;2024-03-23T04:21:55;5.18;;;1.80;;
43905;SDS011;29564;46.622;13.818;2024-03-23T04:23:00;2.28;;;1.58;;
43905;SDS011;29564;46.622;13.818;2024-03-23T04:24:02;5.75;;;2.08;;
43905;SDS011;29564;46.622;13.818;2024-03-23T04:25:04;2.05;;;1.17;;
43905;SDS011;29564;46.622;13.818;2024-03-23T04:26:07;4.03;;;2.25;;
43905;SDS011;29564;46.622;13.818;2024-03-23T04:27:09;2.88;;;1.88;;
43905;SDS011;29564;46.622;13.818;2024-03-23T04:28:14;4.00;;;1.90;;
43905;SDS011;29564;46.622;13.818;2024-03-23T04:29:16;4.20;;;2.13;;
43905;SDS011;29564;46.622;13.818;2024-03-23T04:30:18;1.70;;;1.17;;
43905;SDS011;29564;46.622;13.818;2024-03-23T04:31:21;3.53;;;1.95;;
43905;SDS011;29564;46.622;13.818;2024-03-23T04:32:23;1.90;;;1.23;;
43905;SDS011;29564;46.622;13.818;2024-03-23T04:33:25;2.72;;;1.70;;
43905;SDS011;29564;46.622;13.818;2024-03-23T04:34:27;3.60;;;2.08;;
43905;SDS011;29564;46.622;13.818;2024-03-23T04:35:30;3.35;;;1.73;;
43905;SDS011;29564;46.622;13.818;2024-03-23T04:36:32;3.25;;;1.98;;
43905;SDS011;29564;46.622;13.818;2024-03-23T04:37:33;4.30;;;1.80;;
43905;SDS011;29564;46.622;13.818;2024-03-23T04:38:35;2.03;;;1.25;;
43905;SDS011;29564;46.622;13.818;2024-03-23T04:39:37;5.18;;;2.55;;
43905;SDS011;29564;46.622;13.818;2024-03-23T04:40:39;3.17;;;1.63;;
43905;SDS011;29564;46.622;13.818;2024-03-23T04:41:44;3.35;;;1.90;;
43905;SDS011;29564;46.622;13.818;2024-03-23T04:42:46;1.30;;;1.20;;
43905;SDS011;29564;46.622;13.818;2024-03-23T04:43:48;2.67;;;1.38;;
43905;SDS011;29564;46.622;13.818;2024-03-23T04:44:50;5.07;;;2.20;;
43905;SDS011;29564;46.622;13.818;2024-03-23T04:45:52;4.40;;;1.77;;
43905;SDS011;29564;46.622;13.818;2024-03-23T04:46:59;4.20;;;2.20;;
43905;SDS011;29564;46.622;13.818;2024-03-23T04:48:04;2.95;;;1.80;;
43905;SDS011;29564;46.622;13.818;2024-03-23T04:49:09;3.30;;;1.77;;
43905;SDS011;29564;46.622;13.818;2024-03-23T04:50:11;5.68;;;1.92;;
43905;SDS011;29564;46.622;13.818;2024-03-23T04:51:27;3.10;;;1.90;;
43905;SDS011;29564;46.622;13.818;2024-03-23T04:52:29;3.10;;;1.60;;
43905;SDS011;29564;46.622;13.818;2024-03-23T04:53:33;2.78;;;1.88;;
43905;SDS011;29564;46.622;13.818;2024-03-23T04:54:38;2.17;;;1.33;;
43905;SDS011;29564;46.622;13.818;2024-03-23T04:55:48;2.22;;;1.67;;
43905;SDS011;29564;46.622;13.818;2024-03-23T04:56:53;5.25;;;2.28;;
43905;SDS011;29564;46.622;13.818;2024-03-23T04:57:55;3.05;;;2.05;;
43905;SDS011;29564;46.622;13.818;2024-03-23T04:58:57;4.75;;;2.17;;
43905;SDS011;29564;46.622;13.818;2024-03-23T05:00:02;5.03;;;1.70;;
43905;SDS011;29564;46.622;13.818;2024-03-23T05:01:16;4.55;;;1.98;;
43905;SDS011;29564;46.622;13.818;2024-03-23T05:02:18;4.72;;;2.00;;
43905;SDS011;29564;46.622;13.818;2024-03-23T05:03:29;3.15;;;1.90;;
43905;SDS011;29564;46.622;13.818;2024-03-23T05:04:35;2.13;;;1.92;;
43905;SDS011;29564;46.622;13.818;2024-03-23T05:05:38;3.90;;;1.52;;
43905;SDS011;29564;46.622;13.818;2024-03-23T05:06:40;3.47;;;1.92;;
43905;SDS011;29564;46.622;13.818;2024-03-23T05:08:46;4.22;;;1.70;;
43905;SDS011;29564;46.622;13.818;2024-03-23T05:09:48;2.47;;;1.60;;
43905;SDS011;29564;46.622;13.818;2024-03-23T05:10:50;3.35;;;1.50;;
43905;SDS011;29564;46.622;13.818;2024-03-23T05:11:51;3.13;;;1.73;;
43905;SDS011;29564;46.622;13.818;2024-03-23T05:12:53;3.45;;;2.05;;
43905;SDS011;29564;46.622;13.818;2024-03-23T05:13:55;3.55;;;2.25;;
43905;SDS011;29564;46.622;13.818;2024-03-23T05:14:57;3.20;;;1.95;;
43905;SDS011;29564;46.622;13.818;2024-03-23T05:15:59;4.15;;;1.63;;
43905;SDS011;29564;46.622;13.818;2024-03-23T05:17:01;4.20;;;2.03;;
43905;SDS011;29564;46.622;13.818;2024-03-23T05:18:06;2.15;;;1.73;;
43905;SDS011;29564;46.622;13.818;2024-03-23T05:19:08;5.78;;;2.20;;
43905;SDS011;29564;46.622;13.818;2024-03-23T05:20:15;4.38;;;2.20;;
43905;SDS011;29564;46.622;13.818;2024-03-23T05:21:19;2.53;;;1.52;;
43905;SDS011;29564;46.622;13.818;2024-03-23T05:22:20;3.20;;;1.98;;
43905;SDS011;29564;46.622;13.818;2024-03-23T05:23:25;3.65;;;2.15;;
43905;SDS011;29564;46.622;13.818;2024-03-23T05:24:30;5.60;;;2.70;;
43905;SDS011;29564;46.622;13.818;2024-03-23T05:25:32;3.70;;;1.65;;
43905;SDS011;29564;46.622;13.818;2024-03-23T05:26:43;4.00;;;2.65;;
43905;SDS011;29564;46.622;13.818;2024-03-23T05:27:48;4.35;;;1.90;;
43905;SDS011;29564;46.622;13.818;2024-03-23T05:28:50;4.18;;;2.08;;
43905;SDS011;29564;46.622;13.818;2024-03-23T05:29:54;3.95;;;1.80;;
43905;SDS011;29564;46.622;13.818;2024-03-23T05:30:59;4.88;;;2.20;;
43905;SDS011;29564;46.622;13.818;2024-03-23T05:32:01;4.55;;;2.00;;
43905;SDS011;29564;46.622;13.818;2024-03-23T05:33:03;5.07;;;2.13;;
43905;SDS011;29564;46.622;13.818;2024-03-23T05:34:07;5.65;;;2.28;;
43905;SDS011;29564;46.622;13.818;2024-03-23T05:35:09;5.47;;;2.55;;
43905;SDS011;29564;46.622;13.818;2024-03-23T05:36:12;5.88;;;2.53;;
43905;SDS011;29564;46.622;13.818;2024-03-23T05:37:14;4.85;;;2.50;;
43905;SDS011;29564;46.622;13.818;2024-03-23T05:38:16;4.65;;;2.42;;
43905;SDS011;29564;46.622;13.818;2024-03-23T05:39:20;5.10;;;3.03;;
43905;SDS011;29564;46.622;13.818;2024-03-23T05:40:26;5.63;;;2.92;;
43905;SDS011;29564;46.622;13.818;2024-03-23T05:41:31;5.97;;;2.42;;
43905;SDS011;29564;46.622;13.818;2024-03-23T05:42:34;5.68;;;2.58;;
43905;SDS011;29564;46.622;13.818;2024-03-23T05:43:36;4.93;;;2.63;;
43905;SDS011;29564;46.622;13.818;2024-03-23T05:44:39;4.40;;;2.80;;
43905;SDS011;29564;46.622;13.818;2024-03-23T05:45:43;4.53;;;2.40;;
43905;SDS011;29564;46.622;13.818;2024-03-23T05:46:48;3.33;;;1.90;;
43905;SDS011;29564;46.622;13.818;2024-03-23T05:47:50;3.30;;;2.13;;
43905;SDS011;29564;46.622;13.818;2024-03-23T05:48:55;2.03;;;1.20;;
43905;SDS011;29564;46.622;13.818;2024-03-23T05:50:05;2.92;;;1.70;;
43905;SDS011;29564;46.622;13.818;2024-03-23T05:51:10;4.50;;;2.08;;
43905;SDS011;29564;46.622;13.818;2024-03-23T05:52:16;3.95;;;2.08;;
43905;SDS011;29564;46.622;13.818;2024-03-23T05:53:21;2.70;;;1.42;;
43905;SDS011;29564;46.622;13.818;2024-03-23T05:54:23;2.92;;;1.73;;
43905;SDS011;29564;46.622;13.818;2024-03-23T05:55:27;3.30;;;1.50;;
43905;SDS011;29564;46.622;13.818;2024-03-23T05:56:32;2.78;;;1.70;;
43905;SDS011;29564;46.622;13.818;2024-03-23T05:57:34;3.75;;;1.90;;
43905;SDS011;29564;46.622;13.818;2024-03-23T05:58:39;4.93;;;1.80;;
43905;SDS011;29564;46.622;13.818;2024-03-23T05:59:41;2.83;;;1.92;;
43905;SDS011;29564;46.622;13.818;2024-03-23T06:00:43;4.90;;;2.22;;
43905;SDS011;29564;46.622;13.818;2024-03-23T06:01:46;3.97;;;2.03;;
43905;SDS011;29564;46.622;13.818;2024-03-23T06:02:52;2.45;;;1.65;;
43905;SDS011;29564;46.622;13.818;2024-03-23T06:03:57;2.47;;;1.30;;
43905;SDS011;29564;46.622;13.818;2024-03-23T06:04:58;3.65;;;1.98;;
43905;SDS011;29564;46.622;13.818;2024-03-23T06:06:04;3.00;;;1.92;;
43905;SDS011;29564;46.622;13.818;2024-03-23T06:07:12;3.30;;;1.58;;
43905;SDS011;29564;46.622;13.818;2024-03-23T06:08:14;4.10;;;1.95;;
43905;SDS011;29564;46.622;13.818;2024-03-23T06:09:19;3.97;;;1.80;;
43905;SDS011;29564;46.622;13.818;2024-03-23T06:10:21;3.58;;;1.85;;
43905;SDS011;29564;46.622;13.818;2024-03-23T06:11:35;2.63;;;1.67;;
43905;SDS011;29564;46.622;13.818;2024-03-23T06:12:36;2.85;;;1.77;;
43905;SDS011;29564;46.622;13.818;2024-03-23T06:13:39;3.85;;;2.08;;
43905;SDS011;29564;46.622;13.818;2024-03-23T06:14:41;9.23;;;3.17;;
43905;SDS011;29564;46.622;13.818;2024-03-23T06:16:06;9.52;;;3.55;;
43905;SDS011;29564;46.622;13.818;2024-03-23T06:17:13;7.53;;;3.85;;
43905;SDS011;29564;46.622;13.818;2024-03-23T06:18:15;8.80;;;4.30;;
43905;SDS011;29564;46.622;13.818;2024-03-23T06:19:20;11.20;;;4.07;;
43905;SDS011;29564;46.622;13.818;2024-03-23T06:20:22;8.23;;;4.38;;
43905;SDS011;29564;46.622;13.818;2024-03-23T06:21:26;8.70;;;3.92;;
43905;SDS011;29564;46.622;13.818;2024-03-23T06:22:28;9.25;;;4.13;;
43905;SDS011;29564;46.622;13.818;2024-03-23T06:23:53;6.85;;;3.58;;
43905;SDS011;29564;46.622;13.818;2024-03-23T06:24:55;7.03;;;3.10;;
43905;SDS011;29564;46.622;13.818;2024-03-23T06:26:00;6.57;;;3.45;;
43905;SDS011;29564;46.622;13.818;2024-03-23T06:27:04;6.40;;;3.47;;
43905;SDS011;29564;46.622;13.818;2024-03-23T06:28:06;5.70;;;2.92;;
43905;SDS011;29564;46.622;13.818;2024-03-23T06:29:11;6.60;;;3.20;;
43905;SDS011;29564;46.622;13.818;2024-03-23T06:30:13;7.03;;;3.08;;
43905;SDS011;29564;46.622;13.818;2024-03-23T06:31:24;3.70;;;2.17;;
43905;SDS011;29564;46.622;13.818;2024-03-23T06:32:29;2.75;;;1.70;;
43905;SDS011;29564;46.622;13.818;2024-03-23T06:33:31;4.13;;;2.13;;
43905;SDS011;29564;46.622;13.818;2024-03-23T06:34:32;6.00;;;2.60;;
43905;SDS011;29564;46.622;13.818;2024-03-23T06:35:34;4.97;;;2.40;;
43905;SDS011;29564;46.622;13.818;2024-03-23T06:36:39;4.97;;;2.45;;
43905;SDS011;29564;46.622;13.818;2024-03-23T06:37:41;8.02;;;2.30;;
43905;SDS011;29564;46.622;13.818;2024-03-23T06:38:45;4.78;;;1.85;;
43905;SDS011;29564;46.622;13.818;2024-03-23T06:39:47;2.85;;;1.75;;
43905;SDS011;29564;46.622;13.818;2024-03-23T06:40:49;3.63;;;2.00;;
43905;SDS011;29564;46.622;13.818;2024-03-23T06:41:56;2.83;;;1.98;;
43905;SDS011;29564;46.622;13.818;2024-03-23T06:42:58;3.22;;;1.50;;
43905;SDS011;29564;46.622;13.818;2024-03-23T06:44:00;4.25;;;1.90;;
43905;SDS011;29564;46.622;13.818;2024-03-23T06:45:05;3.65;;;1.98;;
43905;SDS011;29564;46.622;13.818;2024-03-23T06:46:12;4.25;;;1.95;;
43905;SDS011;29564;46.622;13.818;2024-03-23T06:47:14;2.53;;;2.17;;
43905;SDS011;29564;46.622;13.818;2024-03-23T06:48:26;2.72;;;1.80;;
43905;SDS011;29564;46.622;13.818;2024-03-23T06:49:28;2.78;;;1.60;;
43905;SDS011;29564;46.622;13.818;2024-03-23T06:50:35;6.40;;;2.13;;
43905;SDS011;29564;46.622;13.818;2024-03-23T06:51:37;4.50;;;1.80;;
43905;SDS011;29564;46.622;13.818;2024-03-23T06:52:40;3.47;;;1.80;;
43905;SDS011;29564;46.622;13.818;2024-03-23T06:53:41;2.97;;;1.80;;
43905;SDS011;29564;46.622;13.818;2024-03-23T06:54:46;5.18;;;1.92;;
43905;SDS011;29564;46.622;13.818;2024-03-23T06:56:08;4.00;;;2.13;;
43905;SDS011;29564;46.622;13.818;2024-03-23T06:57:15;4.07;;;2.10;;
43905;SDS011;29564;46.622;13.818;2024-03-23T06:58:23;3.88;;;1.95;;
43905;SDS011;29564;46.622;13.818;2024-03-23T06:59:25;7.80;;;2.28;;
43905;SDS011;29564;46.622;13.818;2024-03-23T07:00:27;5.47;;;2.35;;
43905;SDS011;29564;46.622;13.818;2024-03-23T07:01:28;5.25;;;2.70;;
43905;SDS011;29564;46.622;13.818;2024-03-23T07:02:30;4.50;;;2.30;;
43905;SDS011;29564;46.622;13.818;2024-03-23T07:03:35;5.70;;;2.55;;
43905;SDS011;29564;46.622;13.818;2024-03-23T07:04:37;4.68;;;2.58;;
43905;SDS011;29564;46.622;13.818;2024-03-23T07:05:45;5.00;;;2.17;;
43905;SDS011;29564;46.622;13.818;2024-03-23T07:06:50;7.30;;;2.45;;
43905;SDS011;29564;46.622;13.818;2024-03-23T07:07:55;4.18;;;2.30;;
43905;SDS011;29564;46.622;13.818;2024-03-23T07:08:59;4.38;;;2.50;;
43905;SDS011;29564;46.622;13.818;2024-03-23T07:10:04;5.20;;;2.58;;
43905;SDS011;29564;46.622;13.818;2024-03-23T07:11:09;4.63;;;2.17;;
43905;SDS011;29564;46.622;13.818;2024-03-23T07:12:17;4.57;;;2.28;;
43905;SDS011;29564;46.622;13.818;2024-03-23T07:13:22;4.22;;;2.65;;
43905;SDS011;29564;46.622;13.818;2024-03-23T07:14:24;4.32;;;2.55;;
43905;SDS011;29564;46.622;13.818;2024-03-23T07:15:29;7.32;;;3.58;;
43905;SDS011;29564;46.622;13.818;2024-03-23T07:16:33;4.47;;;2.53;;
43905;SDS011;29564;46.622;13.818;2024-03-23T07:17:38;6.70;;;2.15;;
43905;SDS011;29564;46.622;13.818;2024-03-23T07:18:40;7.53;;;2.50;;
43905;SDS011;29564;46.622;13.818;2024-03-23T07:19:47;3.97;;;2.08;;
43905;SDS011;29564;46.622;13.818;2024-03-23T07:20:56;4.43;;;2.15;;
43905;SDS011;29564;46.622;13.818;2024-03-23T07:22:13;5.80;;;1.92;;
43905;SDS011;29564;46.622;13.818;2024-03-23T07:23:23;4.80;;;3.00;;
43905;SDS011;29564;46.622;13.818;2024-03-23T07:24:28;5.13;;;2.10;;
43905;SDS011;29564;46.622;13.818;2024-03-23T07:25:34;4.40;;;2.38;;
43905;SDS011;29564;46.622;13.818;2024-03-23T07:26:39;6.15;;;2.20;;
43905;SDS011;29564;46.622;13.818;2024-03-23T07:27:41;4.25;;;2.15;;
43905;SDS011;29564;46.622;13.818;2024-03-23T07:28:43;6.50;;;2.88;;
43905;SDS011;29564;46.622;13.818;2024-03-23T07:29:49;3.05;;;2.08;;
43905;SDS011;29564;46.622;13.818;2024-03-23T07:31:02;4.53;;;2.40;;
43905;SDS011;29564;46.622;13.818;2024-03-23T07:32:07;2.83;;;1.98;;
43905;SDS011;29564;46.622;13.818;2024-03-23T07:33:12;3.65;;;1.90;;
43905;SDS011;29564;46.622;13.818;2024-03-23T07:34:16;3.08;;;1.73;;
43905;SDS011;29564;46.622;13.818;2024-03-23T07:35:26;3.60;;;2.20;;
43905;SDS011;29564;46.622;13.818;2024-03-23T07:36:33;5.32;;;2.20;;
43905;SDS011;29564;46.622;13.818;2024-03-23T07:37:38;4.35;;;1.63;;
43905;SDS011;29564;46.622;13.818;2024-03-23T07:38:49;3.83;;;1.95;;
43905;SDS011;29564;46.622;13.818;2024-03-23T07:39:56;4.00;;;1.83;;
43905;SDS011;29564;46.622;13.818;2024-03-23T07:41:10;4.82;;;2.25;;
43905;SDS011;29564;46.622;13.818;2024-03-23T07:42:14;5.40;;;2.28;;
43905;SDS011;29564;46.622;13.818;2024-03-23T07:43:18;3.53;;;1.83;;
43905;SDS011;29564;46.622;13.818;2024-03-23T07:44:23;3.40;;;1.80;;
43905;SDS011;29564;46.622;13.818;2024-03-23T07:46:44;4.18;;;2.47;;
43905;SDS011;29564;46.622;13.818;2024-03-23T07:47:54;1.10;;;1.00;;
43905;SDS011;29564;46.622;13.818;2024-03-23T07:49:09;1.92;;;1.38;;
43905;SDS011;29564;46.622;13.818;2024-03-23T07:50:11;1.27;;;0.88;;
43905;SDS011;29564;46.622;13.818;2024-03-23T07:51:25;4.38;;;1.45;;
43905;SDS011;29564;46.622;13.818;2024-03-23T07:52:35;2.75;;;1.70;;
43905;SDS011;29564;46.622;13.818;2024-03-23T07:53:45;4.60;;;1.83;;
43905;SDS011;29564;46.622;13.818;2024-03-23T07:54:54;3.05;;;1.48;;
43905;SDS011;29564;46.622;13.818;2024-03-23T07:56:08;3.17;;;1.40;;
43905;SDS011;29564;46.622;13.818;2024-03-23T07:57:23;2.33;;;1.35;;
43905;SDS011;29564;46.622;13.818;2024-03-23T07:58:42;2.33;;;1.58;;
43905;SDS011;29564;46.622;13.818;2024-03-23T07:59:49;2.67;;;1.70;;
43905;SDS011;29564;46.622;13.818;2024-03-23T08:01:03;3.80;;;1.92;;
43905;SDS011;29564;46.622;13.818;2024-03-23T08:02:27;2.83;;;1.45;;
43905;SDS011;29564;46.622;13.818;2024-03-23T08:03:41;5.25;;;1.65;;
43905;SDS011;29564;46.622;13.818;2024-03-23T08:04:43;4.10;;;1.83;;
43905;SDS011;29564;46.622;13.818;2024-03-23T08:05:45;3.50;;;1.70;;
43905;SDS011;29564;46.622;13.818;2024-03-23T08:06:47;2.50;;;1.80;;
43905;SDS011;29564;46.622;13.818;2024-03-23T08:07:50;2.97;;;1.70;;
43905;SDS011;29564;46.622;13.818;2024-03-23T08:09:06;3.40;;;1.75;;
43905;SDS011;29564;46.622;13.818;2024-03-23T08:10:23;3.20;;;1.73;;
43905;SDS011;29564;46.622;13.818;2024-03-23T08:11:35;2.15;;;1.45;;
43905;SDS011;29564;46.622;13.818;2024-03-23T08:12:39;2.97;;;1.48;;
43905;SDS011;29564;46.622;13.818;2024-03-23T08:13:41;3.78;;;1.65;;
43905;SDS011;29564;46.622;13.818;2024-03-23T08:14:49;3.40;;;1.55;;
43905;SDS011;29564;46.622;13.818;2024-03-23T08:15:57;3.63;;;2.20;;
43905;SDS011;29564;46.622;13.818;2024-03-23T08:17:02;1.95;;;1.55;;
43905;SDS011;29564;46.622;13.818;2024-03-23T08:18:04;3.92;;;1.73;;
43905;SDS011;29564;46.622;13.818;2024-03-23T08:19:06;3.58;;;1.65;;
43905;SDS011;29564;46.622;13.818;2024-03-23T08:20:16;3.33;;;1.58;;
43905;SDS011;29564;46.622;13.818;2024-03-23T08:21:18;3.28;;;1.65;;
43905;SDS011;29564;46.622;13.818;2024-03-23T08:22:23;3.47;;;1.60;;